YELW weather

Eildon Weir Airport
Victoria, Australia

Public forecast

Using degrees Celsius for public forecast. Weather courtesy of forecast.io.

METAR (pilot weather report)

Closest report is Wangaratta Airport, 52.8 nm (97.7 km) NNE. Retrieved 2019/03/19 18:00 UTC (34 minutes ago):

YWGT 191800Z AUTO 00000KT 9999 // ////// 17/14 Q1012

TAF (pilot weather forecast)

Forecast is more than 12 hours old.

Closest forecast is Wangaratta Airport, 52.8 nm (97.7 km) NNE. Retrieved 2019/03/19 02:33 UTC (16 hours ago):

TAF TAF YWGT 190102Z 1902/1914 22006KT 9000 FU NSC FM191000 16005KT 8000 FU NSC